sensor_id;sensor_type;location;lat;lon;timestamp;P1;durP1;ratioP1;P2;durP2;ratioP2
24034;SDS011;12242;50.952;4.678;2024-01-06T00:00:17;3.38;;;0.57;;
24034;SDS011;12242;50.952;4.678;2024-01-06T00:02:45;1.60;;;0.32;;
24034;SDS011;12242;50.952;4.678;2024-01-06T00:05:13;1.55;;;0.40;;
24034;SDS011;12242;50.952;4.678;2024-01-06T00:07:41;1.42;;;0.30;;
24034;SDS011;12242;50.952;4.678;2024-01-06T00:10:08;3.45;;;0.70;;
24034;SDS011;12242;50.952;4.678;2024-01-06T00:12:44;5.20;;;1.25;;
24034;SDS011;12242;50.952;4.678;2024-01-06T00:15:12;1.02;;;0.45;;
24034;SDS011;12242;50.952;4.678;2024-01-06T00:17:46;2.95;;;0.50;;
24034;SDS011;12242;50.952;4.678;2024-01-06T00:20:14;2.55;;;0.40;;
24034;SDS011;12242;50.952;4.678;2024-01-06T00:22:46;1.50;;;0.47;;
24034;SDS011;12242;50.952;4.678;2024-01-06T00:25:17;2.65;;;0.50;;
24034;SDS011;12242;50.952;4.678;2024-01-06T00:27:52;2.22;;;0.60;;
24034;SDS011;12242;50.952;4.678;2024-01-06T00:30:21;1.83;;;0.60;;
24034;SDS011;12242;50.952;4.678;2024-01-06T00:32:49;2.15;;;0.90;;
24034;SDS011;12242;50.952;4.678;2024-01-06T00:35:17;2.63;;;0.80;;
24034;SDS011;12242;50.952;4.678;2024-01-06T00:38:06;2.25;;;0.75;;
24034;SDS011;12242;50.952;4.678;2024-01-06T00:40:35;2.28;;;0.70;;
24034;SDS011;12242;50.952;4.678;2024-01-06T00:43:04;2.15;;;0.80;;
24034;SDS011;12242;50.952;4.678;2024-01-06T00:45:40;2.65;;;0.90;;
24034;SDS011;12242;50.952;4.678;2024-01-06T00:48:08;2.20;;;0.80;;
24034;SDS011;12242;50.952;4.678;2024-01-06T00:50:37;2.63;;;1.10;;
24034;SDS011;12242;50.952;4.678;2024-01-06T00:53:07;1.98;;;0.73;;
24034;SDS011;12242;50.952;4.678;2024-01-06T00:55:35;1.48;;;0.70;;
24034;SDS011;12242;50.952;4.678;2024-01-06T00:58:03;2.28;;;0.73;;
24034;SDS011;12242;50.952;4.678;2024-01-06T01:00:33;2.25;;;0.80;;
24034;SDS011;12242;50.952;4.678;2024-01-06T01:03:00;2.58;;;0.73;;
24034;SDS011;12242;50.952;4.678;2024-01-06T01:05:31;0.70;;;0.32;;
24034;SDS011;12242;50.952;4.678;2024-01-06T01:07:59;2.00;;;0.43;;
24034;SDS011;12242;50.952;4.678;2024-01-06T01:10:30;3.95;;;0.50;;
24034;SDS011;12242;50.952;4.678;2024-01-06T01:12:59;0.90;;;0.35;;
24034;SDS011;12242;50.952;4.678;2024-01-06T01:15:27;0.75;;;0.38;;
24034;SDS011;12242;50.952;4.678;2024-01-06T01:17:57;1.92;;;0.70;;
24034;SDS011;12242;50.952;4.678;2024-01-06T01:20:27;1.15;;;0.52;;
24034;SDS011;12242;50.952;4.678;2024-01-06T01:22:55;1.60;;;0.70;;
24034;SDS011;12242;50.952;4.678;2024-01-06T01:25:23;1.45;;;0.35;;
24034;SDS011;12242;50.952;4.678;2024-01-06T01:27:51;0.77;;;0.43;;
24034;SDS011;12242;50.952;4.678;2024-01-06T01:30:21;1.10;;;0.47;;
24034;SDS011;12242;50.952;4.678;2024-01-06T01:32:54;1.42;;;0.45;;
24034;SDS011;12242;50.952;4.678;2024-01-06T01:35:24;0.90;;;0.40;;
24034;SDS011;12242;50.952;4.678;2024-01-06T01:37:53;1.10;;;0.50;;
24034;SDS011;12242;50.952;4.678;2024-01-06T01:40:21;0.77;;;0.43;;
24034;SDS011;12242;50.952;4.678;2024-01-06T01:42:51;0.90;;;0.43;;
24034;SDS011;12242;50.952;4.678;2024-01-06T01:45:19;1.48;;;0.65;;
24034;SDS011;12242;50.952;4.678;2024-01-06T01:47:47;1.95;;;0.60;;
24034;SDS011;12242;50.952;4.678;2024-01-06T01:50:15;2.38;;;0.50;;
24034;SDS011;12242;50.952;4.678;2024-01-06T01:52:43;1.27;;;0.40;;
24034;SDS011;12242;50.952;4.678;2024-01-06T01:55:11;0.77;;;0.30;;
24034;SDS011;12242;50.952;4.678;2024-01-06T01:57:39;2.60;;;0.70;;
24034;SDS011;12242;50.952;4.678;2024-01-06T02:00:08;1.42;;;0.20;;
24034;SDS011;12242;50.952;4.678;2024-01-06T02:02:36;0.93;;;0.40;;
24034;SDS011;12242;50.952;4.678;2024-01-06T02:05:04;1.83;;;0.47;;
24034;SDS011;12242;50.952;4.678;2024-01-06T02:07:32;0.65;;;0.35;;
24034;SDS011;12242;50.952;4.678;2024-01-06T02:10:00;1.55;;;0.70;;
24034;SDS011;12242;50.952;4.678;2024-01-06T02:12:28;0.80;;;0.50;;
24034;SDS011;12242;50.952;4.678;2024-01-06T02:15:01;0.95;;;0.40;;
24034;SDS011;12242;50.952;4.678;2024-01-06T02:17:29;0.85;;;0.38;;
24034;SDS011;12242;50.952;4.678;2024-01-06T02:19:59;0.57;;;0.32;;
24034;SDS011;12242;50.952;4.678;2024-01-06T02:22:27;1.00;;;0.43;;
24034;SDS011;12242;50.952;4.678;2024-01-06T02:24:55;1.48;;;0.30;;
24034;SDS011;12242;50.952;4.678;2024-01-06T02:27:30;1.35;;;0.60;;
24034;SDS011;12242;50.952;4.678;2024-01-06T02:29:59;0.93;;;0.30;;
24034;SDS011;12242;50.952;4.678;2024-01-06T02:32:27;1.45;;;0.50;;
24034;SDS011;12242;50.952;4.678;2024-01-06T02:34:56;2.10;;;0.77;;
24034;SDS011;12242;50.952;4.678;2024-01-06T02:37:24;1.35;;;0.50;;
24034;SDS011;12242;50.952;4.678;2024-01-06T02:39:52;1.95;;;0.80;;
24034;SDS011;12242;50.952;4.678;2024-01-06T02:42:23;3.17;;;0.82;;
24034;SDS011;12242;50.952;4.678;2024-01-06T02:44:52;1.42;;;0.73;;
24034;SDS011;12242;50.952;4.678;2024-01-06T02:47:20;2.03;;;0.65;;
24034;SDS011;12242;50.952;4.678;2024-01-06T02:49:52;2.33;;;0.87;;
24034;SDS011;12242;50.952;4.678;2024-01-06T02:52:28;2.90;;;1.10;;
24034;SDS011;12242;50.952;4.678;2024-01-06T02:54:56;2.08;;;0.80;;
24034;SDS011;12242;50.952;4.678;2024-01-06T02:57:25;2.42;;;0.73;;
24034;SDS011;12242;50.952;4.678;2024-01-06T02:59:52;3.55;;;1.15;;
24034;SDS011;12242;50.952;4.678;2024-01-06T03:02:23;3.50;;;1.02;;
24034;SDS011;12242;50.952;4.678;2024-01-06T03:04:51;3.15;;;1.25;;
24034;SDS011;12242;50.952;4.678;2024-01-06T03:07:21;3.97;;;1.35;;
24034;SDS011;12242;50.952;4.678;2024-01-06T03:09:51;4.07;;;1.23;;
24034;SDS011;12242;50.952;4.678;2024-01-06T03:12:19;3.63;;;1.48;;
24034;SDS011;12242;50.952;4.678;2024-01-06T03:14:48;4.10;;;1.30;;
24034;SDS011;12242;50.952;4.678;2024-01-06T03:17:16;4.82;;;1.55;;
24034;SDS011;12242;50.952;4.678;2024-01-06T03:19:44;6.05;;;1.80;;
24034;SDS011;12242;50.952;4.678;2024-01-06T03:22:14;6.75;;;1.92;;
24034;SDS011;12242;50.952;4.678;2024-01-06T03:24:42;10.55;;;2.50;;
24034;SDS011;12242;50.952;4.678;2024-01-06T03:27:12;7.35;;;2.38;;
24034;SDS011;12242;50.952;4.678;2024-01-06T03:29:41;6.88;;;2.35;;
24034;SDS011;12242;50.952;4.678;2024-01-06T03:32:14;5.07;;;2.25;;
24034;SDS011;12242;50.952;4.678;2024-01-06T03:34:42;7.63;;;2.70;;
24034;SDS011;12242;50.952;4.678;2024-01-06T03:37:10;4.85;;;2.38;;
24034;SDS011;12242;50.952;4.678;2024-01-06T03:39:37;12.35;;;2.60;;
24034;SDS011;12242;50.952;4.678;2024-01-06T03:42:06;5.43;;;2.28;;
24034;SDS011;12242;50.952;4.678;2024-01-06T03:44:37;6.47;;;2.28;;
24034;SDS011;12242;50.952;4.678;2024-01-06T03:47:08;7.80;;;2.90;;
24034;SDS011;12242;50.952;4.678;2024-01-06T03:49:35;6.88;;;2.65;;
24034;SDS011;12242;50.952;4.678;2024-01-06T03:52:03;7.28;;;2.35;;
24034;SDS011;12242;50.952;4.678;2024-01-06T03:54:31;6.95;;;2.67;;
24034;SDS011;12242;50.952;4.678;2024-01-06T03:57:01;7.68;;;2.17;;
24034;SDS011;12242;50.952;4.678;2024-01-06T03:59:34;6.13;;;2.70;;
24034;SDS011;12242;50.952;4.678;2024-01-06T04:02:02;4.57;;;2.00;;
24034;SDS011;12242;50.952;4.678;2024-01-06T04:04:30;6.85;;;2.38;;
24034;SDS011;12242;50.952;4.678;2024-01-06T04:06:58;5.85;;;2.10;;
24034;SDS011;12242;50.952;4.678;2024-01-06T04:09:28;7.18;;;2.17;;
24034;SDS011;12242;50.952;4.678;2024-01-06T04:11:56;6.97;;;2.45;;
24034;SDS011;12242;50.952;4.678;2024-01-06T04:14:24;6.85;;;2.38;;
24034;SDS011;12242;50.952;4.678;2024-01-06T04:17:09;6.15;;;2.30;;
24034;SDS011;12242;50.952;4.678;2024-01-06T04:19:36;4.28;;;1.42;;
24034;SDS011;12242;50.952;4.678;2024-01-06T04:22:04;6.13;;;1.90;;
24034;SDS011;12242;50.952;4.678;2024-01-06T04:24:32;6.10;;;2.20;;
24034;SDS011;12242;50.952;4.678;2024-01-06T04:27:07;5.25;;;1.30;;
24034;SDS011;12242;50.952;4.678;2024-01-06T04:29:37;5.53;;;1.23;;
24034;SDS011;12242;50.952;4.678;2024-01-06T04:32:04;3.85;;;1.50;;
24034;SDS011;12242;50.952;4.678;2024-01-06T04:34:43;3.60;;;1.50;;
24034;SDS011;12242;50.952;4.678;2024-01-06T04:37:13;4.32;;;1.63;;
24034;SDS011;12242;50.952;4.678;2024-01-06T04:39:41;4.88;;;1.65;;
24034;SDS011;12242;50.952;4.678;2024-01-06T04:42:09;10.75;;;1.65;;
24034;SDS011;12242;50.952;4.678;2024-01-06T04:44:41;4.85;;;1.60;;
24034;SDS011;12242;50.952;4.678;2024-01-06T04:47:10;5.15;;;1.73;;
24034;SDS011;12242;50.952;4.678;2024-01-06T04:49:38;5.32;;;1.80;;
24034;SDS011;12242;50.952;4.678;2024-01-06T04:52:10;6.07;;;1.90;;
24034;SDS011;12242;50.952;4.678;2024-01-06T04:54:38;4.97;;;2.03;;
24034;SDS011;12242;50.952;4.678;2024-01-06T04:57:06;3.90;;;1.38;;
24034;SDS011;12242;50.952;4.678;2024-01-06T04:59:34;6.82;;;2.10;;
24034;SDS011;12242;50.952;4.678;2024-01-06T05:02:04;6.35;;;1.60;;
24034;SDS011;12242;50.952;4.678;2024-01-06T05:04:31;5.43;;;1.92;;
24034;SDS011;12242;50.952;4.678;2024-01-06T05:07:01;5.20;;;1.77;;
24034;SDS011;12242;50.952;4.678;2024-01-06T05:09:32;4.60;;;1.67;;
24034;SDS011;12242;50.952;4.678;2024-01-06T05:12:00;3.90;;;1.80;;
24034;SDS011;12242;50.952;4.678;2024-01-06T05:14:27;4.35;;;1.67;;
24034;SDS011;12242;50.952;4.678;2024-01-06T05:16:55;3.10;;;1.13;;
24034;SDS011;12242;50.952;4.678;2024-01-06T05:19:23;4.35;;;1.63;;
24034;SDS011;12242;50.952;4.678;2024-01-06T05:21:51;5.75;;;1.85;;
24034;SDS011;12242;50.952;4.678;2024-01-06T05:24:19;4.32;;;1.92;;
24034;SDS011;12242;50.952;4.678;2024-01-06T05:26:47;4.80;;;1.90;;
24034;SDS011;12242;50.952;4.678;2024-01-06T05:29:15;5.47;;;2.08;;
24034;SDS011;12242;50.952;4.678;2024-01-06T05:31:46;4.28;;;1.67;;
24034;SDS011;12242;50.952;4.678;2024-01-06T05:34:16;5.60;;;1.88;;
24034;SDS011;12242;50.952;4.678;2024-01-06T05:36:44;7.53;;;2.17;;
24034;SDS011;12242;50.952;4.678;2024-01-06T05:39:12;4.57;;;1.85;;
24034;SDS011;12242;50.952;4.678;2024-01-06T05:41:40;5.78;;;2.20;;
24034;SDS011;12242;50.952;4.678;2024-01-06T05:44:08;6.05;;;2.45;;
24034;SDS011;12242;50.952;4.678;2024-01-06T05:46:36;5.93;;;2.03;;
24034;SDS011;12242;50.952;4.678;2024-01-06T05:49:04;7.43;;;2.10;;
24034;SDS011;12242;50.952;4.678;2024-01-06T05:51:32;6.30;;;2.22;;
24034;SDS011;12242;50.952;4.678;2024-01-06T05:54:00;5.35;;;2.17;;
24034;SDS011;12242;50.952;4.678;2024-01-06T05:56:30;4.80;;;2.20;;
24034;SDS011;12242;50.952;4.678;2024-01-06T05:59:01;4.75;;;2.13;;
24034;SDS011;12242;50.952;4.678;2024-01-06T06:01:30;5.93;;;2.47;;
24034;SDS011;12242;50.952;4.678;2024-01-06T06:03:57;4.97;;;2.08;;
24034;SDS011;12242;50.952;4.678;2024-01-06T06:06:31;5.13;;;2.13;;
24034;SDS011;12242;50.952;4.678;2024-01-06T06:09:04;7.30;;;2.47;;
24034;SDS011;12242;50.952;4.678;2024-01-06T06:11:34;6.03;;;2.10;;
24034;SDS011;12242;50.952;4.678;2024-01-06T06:14:02;6.95;;;2.13;;
24034;SDS011;12242;50.952;4.678;2024-01-06T06:16:31;3.42;;;1.25;;
24034;SDS011;12242;50.952;4.678;2024-01-06T06:19:08;3.70;;;1.42;;
24034;SDS011;12242;50.952;4.678;2024-01-06T06:21:36;2.75;;;1.13;;
24034;SDS011;12242;50.952;4.678;2024-01-06T06:24:04;3.80;;;1.30;;
24034;SDS011;12242;50.952;4.678;2024-01-06T06:26:36;4.27;;;1.13;;
24034;SDS011;12242;50.952;4.678;2024-01-06T06:29:07;3.60;;;0.98;;
24034;SDS011;12242;50.952;4.678;2024-01-06T06:31:36;2.83;;;1.25;;
24034;SDS011;12242;50.952;4.678;2024-01-06T06:34:07;3.15;;;1.00;;
24034;SDS011;12242;50.952;4.678;2024-01-06T06:36:36;2.28;;;1.10;;
24034;SDS011;12242;50.952;4.678;2024-01-06T06:39:08;2.10;;;1.10;;
24034;SDS011;12242;50.952;4.678;2024-01-06T06:41:36;3.60;;;1.48;;
24034;SDS011;12242;50.952;4.678;2024-01-06T06:44:04;2.88;;;1.33;;
24034;SDS011;12242;50.952;4.678;2024-01-06T06:46:32;3.47;;;1.35;;
24034;SDS011;12242;50.952;4.678;2024-01-06T06:49:03;2.20;;;1.00;;
24034;SDS011;12242;50.952;4.678;2024-01-06T06:51:31;2.97;;;1.17;;
24034;SDS011;12242;50.952;4.678;2024-01-06T06:53:59;2.55;;;0.93;;
24034;SDS011;12242;50.952;4.678;2024-01-06T06:56:27;3.50;;;1.33;;
24034;SDS011;12242;50.952;4.678;2024-01-06T06:58:56;5.50;;;1.45;;
24034;SDS011;12242;50.952;4.678;2024-01-06T07:01:24;4.68;;;1.42;;
24034;SDS011;12242;50.952;4.678;2024-01-06T07:03:51;4.70;;;1.48;;
24034;SDS011;12242;50.952;4.678;2024-01-06T07:06:21;3.15;;;1.35;;
24034;SDS011;12242;50.952;4.678;2024-01-06T07:08:49;3.42;;;1.48;;
24034;SDS011;12242;50.952;4.678;2024-01-06T07:11:17;4.32;;;1.27;;
24034;SDS011;12242;50.952;4.678;2024-01-06T07:13:45;4.13;;;1.40;;
24034;SDS011;12242;50.952;4.678;2024-01-06T07:16:15;4.15;;;1.60;;
24034;SDS011;12242;50.952;4.678;2024-01-06T07:18:46;3.55;;;1.40;;
24034;SDS011;12242;50.952;4.678;2024-01-06T07:21:16;5.25;;;1.95;;
24034;SDS011;12242;50.952;4.678;2024-01-06T07:23:43;3.85;;;1.13;;
24034;SDS011;12242;50.952;4.678;2024-01-06T07:26:11;2.83;;;1.52;;
24034;SDS011;12242;50.952;4.678;2024-01-06T07:28:42;5.43;;;1.60;;
24034;SDS011;12242;50.952;4.678;2024-01-06T07:31:09;2.50;;;1.05;;
24034;SDS011;12242;50.952;4.678;2024-01-06T07:33:37;3.05;;;1.35;;
24034;SDS011;12242;50.952;4.678;2024-01-06T07:36:06;4.10;;;1.58;;
24034;SDS011;12242;50.952;4.678;2024-01-06T07:38:34;4.25;;;1.48;;
24034;SDS011;12242;50.952;4.678;2024-01-06T07:41:02;4.78;;;1.70;;
24034;SDS011;12242;50.952;4.678;2024-01-06T07:43:32;3.88;;;1.63;;
24034;SDS011;12242;50.952;4.678;2024-01-06T07:46:00;5.03;;;1.90;;
24034;SDS011;12242;50.952;4.678;2024-01-06T07:48:30;4.72;;;1.75;;
24034;SDS011;12242;50.952;4.678;2024-01-06T07:50:58;5.57;;;1.77;;
24034;SDS011;12242;50.952;4.678;2024-01-06T07:53:27;5.13;;;1.83;;
24034;SDS011;12242;50.952;4.678;2024-01-06T07:55:54;5.97;;;2.50;;
24034;SDS011;12242;50.952;4.678;2024-01-06T07:58:25;6.60;;;1.85;;
24034;SDS011;12242;50.952;4.678;2024-01-06T08:00:53;5.78;;;1.55;;
24034;SDS011;12242;50.952;4.678;2024-01-06T08:03:20;4.82;;;1.67;;
24034;SDS011;12242;50.952;4.678;2024-01-06T08:05:48;5.63;;;2.00;;
24034;SDS011;12242;50.952;4.678;2024-01-06T08:08:16;6.05;;;1.95;;
24034;SDS011;12242;50.952;4.678;2024-01-06T08:10:47;2.72;;;1.05;;
24034;SDS011;12242;50.952;4.678;2024-01-06T08:13:15;5.22;;;1.63;;
24034;SDS011;12242;50.952;4.678;2024-01-06T08:15:43;4.38;;;2.00;;
24034;SDS011;12242;50.952;4.678;2024-01-06T08:18:11;5.20;;;1.95;;
24034;SDS011;12242;50.952;4.678;2024-01-06T08:20:41;4.35;;;1.50;;
24034;SDS011;12242;50.952;4.678;2024-01-06T08:23:12;3.58;;;1.60;;
24034;SDS011;12242;50.952;4.678;2024-01-06T08:25:40;6.55;;;2.15;;
24034;SDS011;12242;50.952;4.678;2024-01-06T08:28:07;4.32;;;1.77;;
24034;SDS011;12242;50.952;4.678;2024-01-06T08:30:35;5.20;;;1.65;;
24034;SDS011;12242;50.952;4.678;2024-01-06T08:33:03;5.57;;;1.60;;
24034;SDS011;12242;50.952;4.678;2024-01-06T08:35:34;2.90;;;1.10;;
24034;SDS011;12242;50.952;4.678;2024-01-06T08:38:07;4.18;;;1.20;;
24034;SDS011;12242;50.952;4.678;2024-01-06T08:40:35;3.72;;;1.20;;
24034;SDS011;12242;50.952;4.678;2024-01-06T08:43:03;5.35;;;1.40;;
24034;SDS011;12242;50.952;4.678;2024-01-06T08:45:34;4.05;;;1.45;;
24034;SDS011;12242;50.952;4.678;2024-01-06T08:48:02;2.67;;;1.25;;
24034;SDS011;12242;50.952;4.678;2024-01-06T08:50:30;4.22;;;0.95;;
24034;SDS011;12242;50.952;4.678;2024-01-06T08:53:00;6.60;;;1.45;;
24034;SDS011;12242;50.952;4.678;2024-01-06T08:55:31;3.65;;;1.00;;
24034;SDS011;12242;50.952;4.678;2024-01-06T08:57:59;4.40;;;1.30;;
24034;SDS011;12242;50.952;4.678;2024-01-06T09:00:27;3.47;;;1.27;;
24034;SDS011;12242;50.952;4.678;2024-01-06T09:02:55;2.83;;;1.00;;
24034;SDS011;12242;50.952;4.678;2024-01-06T09:05:23;4.32;;;1.40;;
24034;SDS011;12242;50.952;4.678;2024-01-06T09:07:51;2.67;;;1.10;;
24034;SDS011;12242;50.952;4.678;2024-01-06T09:10:21;7.85;;;1.00;;
24034;SDS011;12242;50.952;4.678;2024-01-06T09:12:51;3.70;;;1.40;;
24034;SDS011;12242;50.952;4.678;2024-01-06T09:15:18;2.95;;;1.23;;
24034;SDS011;12242;50.952;4.678;2024-01-06T09:17:46;3.30;;;1.25;;
24034;SDS011;12242;50.952;4.678;2024-01-06T09:20:15;3.97;;;1.27;;
24034;SDS011;12242;50.952;4.678;2024-01-06T09:22:44;2.95;;;0.77;;
24034;SDS011;12242;50.952;4.678;2024-01-06T09:25:14;3.13;;;1.20;;
24034;SDS011;12242;50.952;4.678;2024-01-06T09:27:44;5.63;;;1.15;;
24034;SDS011;12242;50.952;4.678;2024-01-06T09:30:12;4.03;;;1.08;;
24034;SDS011;12242;50.952;4.678;2024-01-06T09:32:40;3.83;;;1.10;;
24034;SDS011;12242;50.952;4.678;2024-01-06T09:35:10;4.90;;;1.17;;
24034;SDS011;12242;50.952;4.678;2024-01-06T09:37:38;5.22;;;1.35;;
24034;SDS011;12242;50.952;4.678;2024-01-06T09:40:11;4.07;;;1.67;;
24034;SDS011;12242;50.952;4.678;2024-01-06T09:45:09;2.88;;;0.95;;
24034;SDS011;12242;50.952;4.678;2024-01-06T09:47:40;3.40;;;1.10;;
24034;SDS011;12242;50.952;4.678;2024-01-06T09:50:14;2.38;;;0.80;;
24034;SDS011;12242;50.952;4.678;2024-01-06T09:52:50;2.78;;;1.00;;
24034;SDS011;12242;50.952;4.678;2024-01-06T09:55:24;1.90;;;0.73;;
24034;SDS011;12242;50.952;4.678;2024-01-06T09:57:53;2.42;;;0.95;;
24034;SDS011;12242;50.952;4.678;2024-01-06T10:00:21;4.15;;;0.82;;
24034;SDS011;12242;50.952;4.678;2024-01-06T10:02:50;3.20;;;0.68;;
24034;SDS011;12242;50.952;4.678;2024-01-06T10:05:18;2.35;;;0.77;;
24034;SDS011;12242;50.952;4.678;2024-01-06T10:07:46;4.20;;;1.10;;
24034;SDS011;12242;50.952;4.678;2024-01-06T10:10:15;2.15;;;0.60;;
24034;SDS011;12242;50.952;4.678;2024-01-06T10:12:42;2.05;;;1.05;;
24034;SDS011;12242;50.952;4.678;2024-01-06T10:15:13;3.95;;;1.27;;
24034;SDS011;12242;50.952;4.678;2024-01-06T10:17:41;2.53;;;0.70;;
24034;SDS011;12242;50.952;4.678;2024-01-06T10:20:10;7.05;;;1.25;;
24034;SDS011;12242;50.952;4.678;2024-01-06T10:22:42;6.65;;;1.10;;
24034;SDS011;12242;50.952;4.678;2024-01-06T10:25:11;3.22;;;1.13;;
24034;SDS011;12242;50.952;4.678;2024-01-06T10:27:40;3.47;;;1.02;;
24034;SDS011;12242;50.952;4.678;2024-01-06T10:30:11;5.70;;;1.35;;
24034;SDS011;12242;50.952;4.678;2024-01-06T10:32:46;2.00;;;0.80;;
24034;SDS011;12242;50.952;4.678;2024-01-06T10:35:14;2.63;;;1.00;;
24034;SDS011;12242;50.952;4.678;2024-01-06T10:37:43;5.03;;;1.00;;
24034;SDS011;12242;50.952;4.678;2024-01-06T10:40:13;2.97;;;0.82;;
24034;SDS011;12242;50.952;4.678;2024-01-06T10:42:46;3.20;;;1.40;;
24034;SDS011;12242;50.952;4.678;2024-01-06T10:45:14;2.20;;;1.00;;
24034;SDS011;12242;50.952;4.678;2024-01-06T10:47:43;4.53;;;1.40;;
24034;SDS011;12242;50.952;4.678;2024-01-06T10:50:11;3.42;;;1.20;;
24034;SDS011;12242;50.952;4.678;2024-01-06T10:52:42;3.60;;;1.30;;
24034;SDS011;12242;50.952;4.678;2024-01-06T10:55:11;3.83;;;1.20;;
24034;SDS011;12242;50.952;4.678;2024-01-06T10:57:41;2.70;;;1.13;;
24034;SDS011;12242;50.952;4.678;2024-01-06T11:00:12;3.75;;;1.02;;
24034;SDS011;12242;50.952;4.678;2024-01-06T11:02:40;2.53;;;1.05;;
24034;SDS011;12242;50.952;4.678;2024-01-06T11:05:09;3.00;;;1.13;;
24034;SDS011;12242;50.952;4.678;2024-01-06T11:07:39;1.55;;;0.68;;
24034;SDS011;12242;50.952;4.678;2024-01-06T11:10:12;4.18;;;1.00;;
24034;SDS011;12242;50.952;4.678;2024-01-06T11:12:44;2.60;;;0.90;;
24034;SDS011;12242;50.952;4.678;2024-01-06T11:15:47;3.40;;;1.00;;
24034;SDS011;12242;50.952;4.678;2024-01-06T11:18:08;1.38;;;0.70;;
24034;SDS011;12242;50.952;4.678;2024-01-06T11:20:36;2.65;;;0.82;;
24034;SDS011;12242;50.952;4.678;2024-01-06T11:23:17;2.33;;;1.10;;
24034;SDS011;12242;50.952;4.678;2024-01-06T11:25:47;3.13;;;1.05;;
24034;SDS011;12242;50.952;4.678;2024-01-06T11:28:16;2.78;;;1.00;;
24034;SDS011;12242;50.952;4.678;2024-01-06T11:30:44;3.33;;;1.20;;
24034;SDS011;12242;50.952;4.678;2024-01-06T11:33:17;10.68;;;3.38;;
24034;SDS011;12242;50.952;4.678;2024-01-06T11:35:48;9.63;;;3.67;;
24034;SDS011;12242;50.952;4.678;2024-01-06T11:38:22;15.07;;;5.72;;
24034;SDS011;12242;50.952;4.678;2024-01-06T11:40:50;13.80;;;5.22;;
24034;SDS011;12242;50.952;4.678;2024-01-06T11:43:18;5.15;;;2.03;;
24034;SDS011;12242;50.952;4.678;2024-01-06T11:45:54;3.60;;;1.08;;
24034;SDS011;12242;50.952;4.678;2024-01-06T11:48:26;2.47;;;0.90;;
24034;SDS011;12242;50.952;4.678;2024-01-06T11:50:57;13.32;;;4.32;;
24034;SDS011;12242;50.952;4.678;2024-01-06T11:53:26;12.77;;;3.75;;
24034;SDS011;12242;50.952;4.678;2024-01-06T11:55:57;6.00;;;2.75;;
24034;SDS011;12242;50.952;4.678;2024-01-06T11:58:27;5.80;;;1.65;;
24034;SDS011;12242;50.952;4.678;2024-01-06T12:00:58;7.88;;;3.35;;
24034;SDS011;12242;50.952;4.678;2024-01-06T12:03:26;4.82;;;2.33;;
24034;SDS011;12242;50.952;4.678;2024-01-06T12:06:01;4.85;;;2.13;;
24034;SDS011;12242;50.952;4.678;2024-01-06T12:08:32;2.45;;;1.40;;
24034;SDS011;12242;50.952;4.678;2024-01-06T12:11:03;3.15;;;1.30;;
24034;SDS011;12242;50.952;4.678;2024-01-06T12:13:32;3.90;;;1.40;;
24034;SDS011;12242;50.952;4.678;2024-01-06T12:16:00;2.83;;;0.98;;
24034;SDS011;12242;50.952;4.678;2024-01-06T12:18:28;3.17;;;1.17;;
24034;SDS011;12242;50.952;4.678;2024-01-06T12:20:56;6.05;;;1.77;;
24034;SDS011;12242;50.952;4.678;2024-01-06T12:23:25;2.72;;;1.13;;
24034;SDS011;12242;50.952;4.678;2024-01-06T12:26:00;3.03;;;1.00;;
24034;SDS011;12242;50.952;4.678;2024-01-06T12:28:35;2.45;;;1.00;;
24034;SDS011;12242;50.952;4.678;2024-01-06T12:31:09;2.85;;;0.82;;
24034;SDS011;12242;50.952;4.678;2024-01-06T12:33:38;5.68;;;1.55;;
24034;SDS011;12242;50.952;4.678;2024-01-06T12:36:09;4.40;;;1.27;;
24034;SDS011;12242;50.952;4.678;2024-01-06T12:38:52;2.30;;;0.98;;
24034;SDS011;12242;50.952;4.678;2024-01-06T12:41:29;2.13;;;1.00;;
24034;SDS011;12242;50.952;4.678;2024-01-06T12:44:00;3.10;;;1.13;;
24034;SDS011;12242;50.952;4.678;2024-01-06T12:46:29;3.35;;;1.25;;
24034;SDS011;12242;50.952;4.678;2024-01-06T12:48:56;2.38;;;0.93;;
24034;SDS011;12242;50.952;4.678;2024-01-06T12:51:25;3.83;;;1.50;;
24034;SDS011;12242;50.952;4.678;2024-01-06T12:53:55;2.33;;;1.08;;
24034;SDS011;12242;50.952;4.678;2024-01-06T12:56:25;6.05;;;2.05;;
24034;SDS011;12242;50.952;4.678;2024-01-06T12:58:52;7.95;;;4.03;;
24034;SDS011;12242;50.952;4.678;2024-01-06T13:01:20;3.80;;;1.63;;
24034;SDS011;12242;50.952;4.678;2024-01-06T13:03:49;2.97;;;1.10;;
24034;SDS011;12242;50.952;4.678;2024-01-06T13:06:16;4.35;;;2.08;;
24034;SDS011;12242;50.952;4.678;2024-01-06T13:08:46;3.70;;;1.42;;
24034;SDS011;12242;50.952;4.678;2024-01-06T13:11:14;3.10;;;1.23;;
24034;SDS011;12242;50.952;4.678;2024-01-06T13:13:42;3.92;;;1.75;;
24034;SDS011;12242;50.952;4.678;2024-01-06T13:16:09;8.23;;;3.20;;
24034;SDS011;12242;50.952;4.678;2024-01-06T13:18:38;4.13;;;1.60;;
24034;SDS011;12242;50.952;4.678;2024-01-06T13:21:07;3.15;;;1.23;;
24034;SDS011;12242;50.952;4.678;2024-01-06T13:23:35;11.98;;;4.97;;
24034;SDS011;12242;50.952;4.678;2024-01-06T13:26:02;15.93;;;5.60;;
24034;SDS011;12242;50.952;4.678;2024-01-06T13:28:30;4.82;;;1.90;;
24034;SDS011;12242;50.952;4.678;2024-01-06T13:30:57;2.70;;;1.15;;
24034;SDS011;12242;50.952;4.678;2024-01-06T13:33:26;3.08;;;1.17;;
24034;SDS011;12242;50.952;4.678;2024-01-06T13:35:54;4.28;;;1.63;;
24034;SDS011;12242;50.952;4.678;2024-01-06T13:38:22;3.70;;;1.33;;
24034;SDS011;12242;50.952;4.678;2024-01-06T13:40:49;4.05;;;1.25;;
24034;SDS011;12242;50.952;4.678;2024-01-06T13:43:20;3.92;;;1.25;;
24034;SDS011;12242;50.952;4.678;2024-01-06T13:45:48;6.38;;;1.90;;
24034;SDS011;12242;50.952;4.678;2024-01-06T13:48:15;2.50;;;1.02;;
24034;SDS011;12242;50.952;4.678;2024-01-06T13:50:44;4.95;;;2.20;;
24034;SDS011;12242;50.952;4.678;2024-01-06T13:53:13;10.80;;;3.88;;
24034;SDS011;12242;50.952;4.678;2024-01-06T13:55:42;3.08;;;1.38;;
24034;SDS011;12242;50.952;4.678;2024-01-06T13:58:12;3.88;;;1.30;;
24034;SDS011;12242;50.952;4.678;2024-01-06T14:00:45;5.47;;;1.25;;
24034;SDS011;12242;50.952;4.678;2024-01-06T14:03:13;4.13;;;1.15;;
24034;SDS011;12242;50.952;4.678;2024-01-06T14:05:41;2.05;;;0.90;;
24034;SDS011;12242;50.952;4.678;2024-01-06T14:08:11;4.70;;;1.63;;
24034;SDS011;12242;50.952;4.678;2024-01-06T14:10:41;11.93;;;4.40;;
24034;SDS011;12242;50.952;4.678;2024-01-06T14:13:12;9.70;;;3.65;;
24034;SDS011;12242;50.952;4.678;2024-01-06T14:15:40;10.23;;;2.70;;
24034;SDS011;12242;50.952;4.678;2024-01-06T14:18:08;7.25;;;2.65;;
24034;SDS011;12242;50.952;4.678;2024-01-06T14:20:37;5.95;;;1.90;;
24034;SDS011;12242;50.952;4.678;2024-01-06T14:23:09;12.43;;;3.80;;
24034;SDS011;12242;50.952;4.678;2024-01-06T14:25:37;11.02;;;2.55;;
24034;SDS011;12242;50.952;4.678;2024-01-06T14:28:05;4.10;;;1.45;;
24034;SDS011;12242;50.952;4.678;2024-01-06T14:30:35;4.28;;;1.40;;
24034;SDS011;12242;50.952;4.678;2024-01-06T14:33:03;3.63;;;1.35;;
24034;SDS011;12242;50.952;4.678;2024-01-06T14:35:31;2.30;;;1.17;;
24034;SDS011;12242;50.952;4.678;2024-01-06T14:38:02;5.00;;;1.23;;
24034;SDS011;12242;50.952;4.678;2024-01-06T14:40:30;2.85;;;1.05;;
24034;SDS011;12242;50.952;4.678;2024-01-06T14:43:00;4.95;;;1.20;;
24034;SDS011;12242;50.952;4.678;2024-01-06T14:45:32;2.40;;;1.10;;
24034;SDS011;12242;50.952;4.678;2024-01-06T14:48:00;5.85;;;1.50;;
24034;SDS011;12242;50.952;4.678;2024-01-06T14:50:28;2.42;;;1.05;;
24034;SDS011;12242;50.952;4.678;2024-01-06T14:52:56;2.00;;;0.88;;
24034;SDS011;12242;50.952;4.678;2024-01-06T14:55:24;2.95;;;0.80;;
24034;SDS011;12242;50.952;4.678;2024-01-06T14:57:52;1.10;;;0.55;;
24034;SDS011;12242;50.952;4.678;2024-01-06T15:00:20;4.25;;;1.65;;
24034;SDS011;12242;50.952;4.678;2024-01-06T15:02:48;3.60;;;1.17;;